KMKT

Mankato Regional Airport

Mankato, Minnesota, USA
KMKT 251325Z 2513/2612 35007KT P6SM VCSH BKN008 OVC015 TEMPO 2513/2515 2SM BR OVC003 FM251500 33009KT 6SM -RA BR OVC015 FM251900 32014KT P6SM VCSH OVC030 FM252300 30011KT P6SM BKN050 FM260200 29007KT P6SM SCT100
Issued Valid From Valid To
Sep-25 @ 13:25 UTC
(4 hours ago)
Sep-25 @ 13:00 UTC
(4 hours ago)
Sep-26 @ 12:00 UTC
(in 19 hours)
Expired Click to View Sep-25 @ 13:00 to Sep-25 @ 15:00
KMKT 251325Z 2513/2612 35007KT P6SM VCSH BKN008 OVC015
Wind Visibility Clouds
350° at 7 knots Greater than 6 miles
  • Broken at 800' AGL
  • Overcast at 1,500' AGL
Expired Click to View Sep-25 @ 13:00 to Sep-25 @ 15:00
TEMPO 2513/2515 2SM BR OVC003
Visibility Clouds Conditions
2 miles
  • Overcast at 300' AGL
  • Mist
From Sep-25 @ 15:00 to Sep-25 @ 19:00
FM251500 33009KT 6SM -RA BR OVC015
Wind Visibility Clouds Conditions
330° at 9 knots 6 miles
  • Overcast at 1,500' AGL
  • Light Rain
  • Mist
From Sep-25 @ 19:00 to Sep-25 @ 23:00
FM251900 32014KT P6SM VCSH OVC030
Wind Visibility Clouds
320° at 14 knots Greater than 6 miles
  • Overcast at 3,000' AGL
From Sep-25 @ 23:00 to Sep-26 @ 02:00
FM252300 30011KT P6SM BKN050
Wind Visibility Clouds
300° at 11 knots Greater than 6 miles
  • Broken at 5,000' AGL
From Sep-26 @ 02:00 to Sep-26 @ 12:00
FM260200 29007KT P6SM SCT100
Wind Visibility Clouds
290° at 7 knots Greater than 6 miles
  • Scattered at 10,000' AGL
KMKT 251325Z 2513/2612 35007KT P6SM VCSH BKN008 OVC015 TEMPO 2513/2515 2SM BR OVC003 FM251500 33009KT 6SM -RA BR OVC015 FM251900 32014KT P6SM VCSH OVC030 FM252300 30011KT P6SM BKN050 FM260200 29007KT P6SM SCT100
Issued Sep-25 @ 13:25 UTC
(4 hours ago)
Valid From Sep-25 @ 13:00 UTC
(4 hours ago)
Valid To Sep-26 @ 12:00 UTC
(in 19 hours)
Sep-25 @ 13:00 - Sep-25 @ 15:00
Wind Visibility
350° at 7 knots Greater than 6 miles
Clouds
  • Broken at 800' AGL
  • Overcast at 1,500' AGL
Sep-25 @ 13:00 - Sep-25 @ 15:00
Clouds
  • Overcast at 300' AGL
Conditions
  • Mist
From Sep-25 @ 15:00 - Sep-25 @ 19:00
Wind Visibility
330° at 9 knots 6 miles
Clouds
  • Overcast at 1,500' AGL
Conditions
  • Light Rain
  • Mist
From Sep-25 @ 19:00 - Sep-25 @ 23:00
Wind Visibility
320° at 14 knots Greater than 6 miles
Clouds
  • Overcast at 3,000' AGL
From Sep-25 @ 23:00 - Sep-26 @ 02:00
Wind Visibility
300° at 11 knots Greater than 6 miles
Clouds
  • Broken at 5,000' AGL
From Sep-26 @ 02:00 - Sep-26 @ 12:00
Wind Visibility
290° at 7 knots Greater than 6 miles
Clouds
  • Scattered at 10,000' AGL